sensor_id;sensor_type;location;lat;lon;timestamp;temperature;humidity
57058;DHT22;55017;52.848;6.748;2023-06-04T00:02:05;12.10;91.80
57058;DHT22;55017;52.848;6.748;2023-06-04T00:04:30;12.20;92.20
57058;DHT22;55017;52.848;6.748;2023-06-04T00:06:56;12.20;92.60
57058;DHT22;55017;52.848;6.748;2023-06-04T00:09:22;12.10;93.30
57058;DHT22;55017;52.848;6.748;2023-06-04T00:11:47;12.20;93.10
57058;DHT22;55017;52.848;6.748;2023-06-04T00:14:14;12.10;93.80
57058;DHT22;55017;52.848;6.748;2023-06-04T00:16:40;12.10;94.00
57058;DHT22;55017;52.848;6.748;2023-06-04T00:19:06;12.10;94.00
57058;DHT22;55017;52.848;6.748;2023-06-04T00:21:32;12.10;94.30
57058;DHT22;55017;52.848;6.748;2023-06-04T00:23:59;12.00;94.70
57058;DHT22;55017;52.848;6.748;2023-06-04T00:26:24;12.00;94.80
57058;DHT22;55017;52.848;6.748;2023-06-04T00:28:50;12.00;95.60
57058;DHT22;55017;52.848;6.748;2023-06-04T00:31:15;11.90;96.10
57058;DHT22;55017;52.848;6.748;2023-06-04T00:33:41;11.80;96.40
57058;DHT22;55017;52.848;6.748;2023-06-04T00:36:07;11.70;96.60
57058;DHT22;55017;52.848;6.748;2023-06-04T00:38:32;11.60;96.90
57058;DHT22;55017;52.848;6.748;2023-06-04T00:40:58;11.70;96.90
57058;DHT22;55017;52.848;6.748;2023-06-04T00:43:24;11.60;97.70
57058;DHT22;55017;52.848;6.748;2023-06-04T00:45:52;11.60;98.30
57058;DHT22;55017;52.848;6.748;2023-06-04T00:48:18;11.60;98.70
57058;DHT22;55017;52.848;6.748;2023-06-04T00:50:44;11.60;99.50
57058;DHT22;55017;52.848;6.748;2023-06-04T00:53:10;11.60;99.20
57058;DHT22;55017;52.848;6.748;2023-06-04T00:55:36;11.70;99.70
57058;DHT22;55017;52.848;6.748;2023-06-04T00:58:02;11.50;99.90
57058;DHT22;55017;52.848;6.748;2023-06-04T01:00:30;11.60;99.90
57058;DHT22;55017;52.848;6.748;2023-06-04T01:02:57;11.60;99.90
57058;DHT22;55017;52.848;6.748;2023-06-04T01:05:41;11.40;99.90
57058;DHT22;55017;52.848;6.748;2023-06-04T01:08:09;11.50;99.90
57058;DHT22;55017;52.848;6.748;2023-06-04T01:10:35;11.40;99.90
57058;DHT22;55017;52.848;6.748;2023-06-04T01:13:01;11.40;99.90
57058;DHT22;55017;52.848;6.748;2023-06-04T01:15:27;11.30;99.90
57058;DHT22;55017;52.848;6.748;2023-06-04T01:17:58;11.40;99.90
57058;DHT22;55017;52.848;6.748;2023-06-04T01:20:34;11.40;99.90
57058;DHT22;55017;52.848;6.748;2023-06-04T01:25:37;11.30;99.90
57058;DHT22;55017;52.848;6.748;2023-06-04T01:28:07;11.30;99.90
57058;DHT22;55017;52.848;6.748;2023-06-04T01:30:34;11.20;99.90
57058;DHT22;55017;52.848;6.748;2023-06-04T01:33:01;11.20;99.90
57058;DHT22;55017;52.848;6.748;2023-06-04T01:35:28;11.00;99.90
57058;DHT22;55017;52.848;6.748;2023-06-04T01:37:54;11.00;99.90
57058;DHT22;55017;52.848;6.748;2023-06-04T01:40:20;11.00;99.90
57058;DHT22;55017;52.848;6.748;2023-06-04T01:42:45;11.00;99.90
57058;DHT22;55017;52.848;6.748;2023-06-04T01:45:11;11.00;99.90
57058;DHT22;55017;52.848;6.748;2023-06-04T01:47:36;10.90;99.90
57058;DHT22;55017;52.848;6.748;2023-06-04T01:50:03;10.90;99.90
57058;DHT22;55017;52.848;6.748;2023-06-04T01:52:28;10.80;99.90
57058;DHT22;55017;52.848;6.748;2023-06-04T01:54:54;10.90;99.90
57058;DHT22;55017;52.848;6.748;2023-06-04T01:57:20;10.90;99.90
57058;DHT22;55017;52.848;6.748;2023-06-04T01:59:45;10.70;99.90
57058;DHT22;55017;52.848;6.748;2023-06-04T02:02:12;10.70;99.90
57058;DHT22;55017;52.848;6.748;2023-06-04T02:04:38;10.70;99.90
57058;DHT22;55017;52.848;6.748;2023-06-04T02:07:10;10.70;99.90
57058;DHT22;55017;52.848;6.748;2023-06-04T02:09:36;10.70;99.90
57058;DHT22;55017;52.848;6.748;2023-06-04T02:12:02;10.70;99.90
57058;DHT22;55017;52.848;6.748;2023-06-04T02:14:27;10.80;99.90
57058;DHT22;55017;52.848;6.748;2023-06-04T02:16:53;10.70;99.90
57058;DHT22;55017;52.848;6.748;2023-06-04T02:19:26;10.70;99.90
57058;DHT22;55017;52.848;6.748;2023-06-04T02:21:53;10.70;99.90
57058;DHT22;55017;52.848;6.748;2023-06-04T02:24:18;10.70;99.90
57058;DHT22;55017;52.848;6.748;2023-06-04T02:26:44;10.80;99.90
57058;DHT22;55017;52.848;6.748;2023-06-04T02:29:09;10.70;99.90
57058;DHT22;55017;52.848;6.748;2023-06-04T02:31:35;10.70;99.90
57058;DHT22;55017;52.848;6.748;2023-06-04T02:34:01;10.60;99.90
57058;DHT22;55017;52.848;6.748;2023-06-04T02:36:26;10.60;99.90
57058;DHT22;55017;52.848;6.748;2023-06-04T02:38:52;10.70;99.90
57058;DHT22;55017;52.848;6.748;2023-06-04T02:41:17;10.60;99.90
57058;DHT22;55017;52.848;6.748;2023-06-04T02:43:43;10.60;99.90
57058;DHT22;55017;52.848;6.748;2023-06-04T02:46:09;10.40;99.90
57058;DHT22;55017;52.848;6.748;2023-06-04T02:48:35;10.50;99.90
57058;DHT22;55017;52.848;6.748;2023-06-04T02:51:00;10.50;99.90
57058;DHT22;55017;52.848;6.748;2023-06-04T02:53:26;10.40;99.90
57058;DHT22;55017;52.848;6.748;2023-06-04T02:55:51;10.40;99.90
57058;DHT22;55017;52.848;6.748;2023-06-04T02:58:18;10.30;99.90
57058;DHT22;55017;52.848;6.748;2023-06-04T03:00:44;10.30;99.90
57058;DHT22;55017;52.848;6.748;2023-06-04T03:03:10;10.30;99.90
57058;DHT22;55017;52.848;6.748;2023-06-04T03:05:36;10.20;99.90
57058;DHT22;55017;52.848;6.748;2023-06-04T03:08:02;10.30;99.90
57058;DHT22;55017;52.848;6.748;2023-06-04T03:10:29;10.20;99.90
57058;DHT22;55017;52.848;6.748;2023-06-04T03:12:55;10.20;99.90
57058;DHT22;55017;52.848;6.748;2023-06-04T03:15:20;10.10;99.90
57058;DHT22;55017;52.848;6.748;2023-06-04T03:17:46;10.20;99.90
57058;DHT22;55017;52.848;6.748;2023-06-04T03:20:12;10.10;99.90
57058;DHT22;55017;52.848;6.748;2023-06-04T03:22:37;10.00;99.90
57058;DHT22;55017;52.848;6.748;2023-06-04T03:25:04;10.10;99.90
57058;DHT22;55017;52.848;6.748;2023-06-04T03:27:31;10.00;99.90
57058;DHT22;55017;52.848;6.748;2023-06-04T03:29:57;9.90;99.90
57058;DHT22;55017;52.848;6.748;2023-06-04T03:32:23;10.10;99.90
57058;DHT22;55017;52.848;6.748;2023-06-04T03:34:49;10.00;99.90
57058;DHT22;55017;52.848;6.748;2023-06-04T03:37:14;10.10;99.90
57058;DHT22;55017;52.848;6.748;2023-06-04T03:39:40;10.20;99.90
57058;DHT22;55017;52.848;6.748;2023-06-04T03:42:05;10.20;99.90
57058;DHT22;55017;52.848;6.748;2023-06-04T03:44:31;10.30;99.90
57058;DHT22;55017;52.848;6.748;2023-06-04T03:46:57;10.30;99.90
57058;DHT22;55017;52.848;6.748;2023-06-04T03:49:22;10.40;99.90
57058;DHT22;55017;52.848;6.748;2023-06-04T03:51:48;10.20;99.90
57058;DHT22;55017;52.848;6.748;2023-06-04T03:54:14;10.40;99.90
57058;DHT22;55017;52.848;6.748;2023-06-04T03:56:43;10.30;99.90
57058;DHT22;55017;52.848;6.748;2023-06-04T03:59:09;10.30;99.90
57058;DHT22;55017;52.848;6.748;2023-06-04T04:01:35;10.30;99.90
57058;DHT22;55017;52.848;6.748;2023-06-04T04:04:00;10.30;99.90
57058;DHT22;55017;52.848;6.748;2023-06-04T04:06:26;10.40;99.90
57058;DHT22;55017;52.848;6.748;2023-06-04T04:08:51;10.50;99.90
57058;DHT22;55017;52.848;6.748;2023-06-04T04:11:17;10.40;99.90
57058;DHT22;55017;52.848;6.748;2023-06-04T04:13:45;10.60;99.90
57058;DHT22;55017;52.848;6.748;2023-06-04T04:16:11;10.40;99.90
57058;DHT22;55017;52.848;6.748;2023-06-04T04:18:37;10.50;99.90
57058;DHT22;55017;52.848;6.748;2023-06-04T04:21:03;10.60;99.90
57058;DHT22;55017;52.848;6.748;2023-06-04T04:23:30;10.60;99.90
57058;DHT22;55017;52.848;6.748;2023-06-04T04:25:58;10.60;99.90
57058;DHT22;55017;52.848;6.748;2023-06-04T04:28:24;10.70;99.90
57058;DHT22;55017;52.848;6.748;2023-06-04T04:30:56;10.80;99.90
57058;DHT22;55017;52.848;6.748;2023-06-04T04:33:23;10.80;99.90
57058;DHT22;55017;52.848;6.748;2023-06-04T04:35:50;10.80;99.90
57058;DHT22;55017;52.848;6.748;2023-06-04T04:38:16;10.80;99.90
57058;DHT22;55017;52.848;6.748;2023-06-04T04:40:43;10.90;99.90
57058;DHT22;55017;52.848;6.748;2023-06-04T04:43:09;10.90;99.90
57058;DHT22;55017;52.848;6.748;2023-06-04T04:45:34;11.00;99.90
57058;DHT22;55017;52.848;6.748;2023-06-04T04:48:00;11.00;99.90
57058;DHT22;55017;52.848;6.748;2023-06-04T04:50:25;11.10;99.90
57058;DHT22;55017;52.848;6.748;2023-06-04T04:52:51;11.20;99.90
57058;DHT22;55017;52.848;6.748;2023-06-04T04:55:17;11.20;99.90
57058;DHT22;55017;52.848;6.748;2023-06-04T04:57:42;11.30;99.90
57058;DHT22;55017;52.848;6.748;2023-06-04T05:00:08;11.30;99.90
57058;DHT22;55017;52.848;6.748;2023-06-04T05:02:35;11.50;99.90
57058;DHT22;55017;52.848;6.748;2023-06-04T05:05:01;11.40;99.90
57058;DHT22;55017;52.848;6.748;2023-06-04T05:07:27;11.50;99.90
57058;DHT22;55017;52.848;6.748;2023-06-04T05:09:53;11.60;99.90
57058;DHT22;55017;52.848;6.748;2023-06-04T05:12:18;11.60;99.90
57058;DHT22;55017;52.848;6.748;2023-06-04T05:14:44;11.70;99.90
57058;DHT22;55017;52.848;6.748;2023-06-04T05:17:11;11.80;99.90
57058;DHT22;55017;52.848;6.748;2023-06-04T05:19:38;11.90;99.90
57058;DHT22;55017;52.848;6.748;2023-06-04T05:22:04;12.00;99.90
57058;DHT22;55017;52.848;6.748;2023-06-04T05:24:30;12.10;99.90
57058;DHT22;55017;52.848;6.748;2023-06-04T05:26:57;12.20;99.90
57058;DHT22;55017;52.848;6.748;2023-06-04T05:29:23;12.20;99.90
57058;DHT22;55017;52.848;6.748;2023-06-04T05:31:49;12.10;99.90
57058;DHT22;55017;52.848;6.748;2023-06-04T05:34:15;12.30;99.90
57058;DHT22;55017;52.848;6.748;2023-06-04T05:36:41;12.40;99.90
57058;DHT22;55017;52.848;6.748;2023-06-04T05:39:07;12.40;99.90
57058;DHT22;55017;52.848;6.748;2023-06-04T05:41:32;12.50;99.90
57058;DHT22;55017;52.848;6.748;2023-06-04T05:43:58;12.60;99.90
57058;DHT22;55017;52.848;6.748;2023-06-04T05:46:23;12.70;99.90
57058;DHT22;55017;52.848;6.748;2023-06-04T05:48:49;12.70;99.90
57058;DHT22;55017;52.848;6.748;2023-06-04T05:51:16;12.80;99.90
57058;DHT22;55017;52.848;6.748;2023-06-04T05:53:41;12.80;99.90
57058;DHT22;55017;52.848;6.748;2023-06-04T05:56:07;13.10;99.90
57058;DHT22;55017;52.848;6.748;2023-06-04T05:58:33;13.10;99.90
57058;DHT22;55017;52.848;6.748;2023-06-04T06:00:59;13.10;99.90
57058;DHT22;55017;52.848;6.748;2023-06-04T06:03:25;13.30;99.90
57058;DHT22;55017;52.848;6.748;2023-06-04T06:05:52;13.30;99.90
57058;DHT22;55017;52.848;6.748;2023-06-04T06:08:19;13.40;99.90
57058;DHT22;55017;52.848;6.748;2023-06-04T06:10:45;13.50;99.90
57058;DHT22;55017;52.848;6.748;2023-06-04T06:13:11;13.60;99.90
57058;DHT22;55017;52.848;6.748;2023-06-04T06:15:36;13.70;99.90
57058;DHT22;55017;52.848;6.748;2023-06-04T06:18:02;13.70;99.90
57058;DHT22;55017;52.848;6.748;2023-06-04T06:20:28;13.80;99.90
57058;DHT22;55017;52.848;6.748;2023-06-04T06:22:54;14.00;99.90
57058;DHT22;55017;52.848;6.748;2023-06-04T06:25:20;14.20;99.90
57058;DHT22;55017;52.848;6.748;2023-06-04T06:27:45;14.20;99.90
57058;DHT22;55017;52.848;6.748;2023-06-04T06:30:12;14.30;99.90
57058;DHT22;55017;52.848;6.748;2023-06-04T06:32:38;14.40;99.90
57058;DHT22;55017;52.848;6.748;2023-06-04T06:35:04;14.60;99.90
57058;DHT22;55017;52.848;6.748;2023-06-04T06:37:30;14.60;99.90
57058;DHT22;55017;52.848;6.748;2023-06-04T06:39:56;14.70;99.90
57058;DHT22;55017;52.848;6.748;2023-06-04T06:42:22;14.80;99.90
57058;DHT22;55017;52.848;6.748;2023-06-04T06:44:48;14.90;99.90
57058;DHT22;55017;52.848;6.748;2023-06-04T06:47:13;15.00;99.90
57058;DHT22;55017;52.848;6.748;2023-06-04T06:49:42;15.10;99.90
57058;DHT22;55017;52.848;6.748;2023-06-04T06:52:08;15.20;99.90
57058;DHT22;55017;52.848;6.748;2023-06-04T06:54:34;15.20;99.90
57058;DHT22;55017;52.848;6.748;2023-06-04T06:56:59;15.50;99.90
57058;DHT22;55017;52.848;6.748;2023-06-04T06:59:26;15.40;99.90
57058;DHT22;55017;52.848;6.748;2023-06-04T07:01:52;15.60;99.90
57058;DHT22;55017;52.848;6.748;2023-06-04T07:04:18;15.70;99.90
57058;DHT22;55017;52.848;6.748;2023-06-04T07:06:43;15.80;99.90
57058;DHT22;55017;52.848;6.748;2023-06-04T07:09:09;16.10;99.90
57058;DHT22;55017;52.848;6.748;2023-06-04T07:11:35;16.30;99.90
57058;DHT22;55017;52.848;6.748;2023-06-04T07:14:01;16.30;99.90
57058;DHT22;55017;52.848;6.748;2023-06-04T07:16:28;16.40;99.90
57058;DHT22;55017;52.848;6.748;2023-06-04T07:18:54;16.40;99.90
57058;DHT22;55017;52.848;6.748;2023-06-04T07:21:19;16.60;99.90
57058;DHT22;55017;52.848;6.748;2023-06-04T07:23:47;16.60;99.90
57058;DHT22;55017;52.848;6.748;2023-06-04T07:26:16;16.80;99.90
57058;DHT22;55017;52.848;6.748;2023-06-04T07:28:43;16.90;99.90
57058;DHT22;55017;52.848;6.748;2023-06-04T07:31:09;17.00;99.90
57058;DHT22;55017;52.848;6.748;2023-06-04T07:33:34;17.20;99.90
57058;DHT22;55017;52.848;6.748;2023-06-04T07:36:00;17.30;99.90
57058;DHT22;55017;52.848;6.748;2023-06-04T07:38:26;17.50;99.90
57058;DHT22;55017;52.848;6.748;2023-06-04T07:40:52;17.50;99.90
57058;DHT22;55017;52.848;6.748;2023-06-04T07:43:17;17.60;99.90
57058;DHT22;55017;52.848;6.748;2023-06-04T07:45:43;17.90;99.90
57058;DHT22;55017;52.848;6.748;2023-06-04T07:48:09;18.10;99.90
57058;DHT22;55017;52.848;6.748;2023-06-04T07:50:36;18.10;98.50
57058;DHT22;55017;52.848;6.748;2023-06-04T07:53:02;18.20;98.50
57058;DHT22;55017;52.848;6.748;2023-06-04T07:55:27;18.30;98.30
57058;DHT22;55017;52.848;6.748;2023-06-04T07:57:53;18.50;97.60
57058;DHT22;55017;52.848;6.748;2023-06-04T08:00:19;18.60;96.60
57058;DHT22;55017;52.848;6.748;2023-06-04T08:02:45;18.80;95.60
57058;DHT22;55017;52.848;6.748;2023-06-04T08:05:10;18.90;95.40
57058;DHT22;55017;52.848;6.748;2023-06-04T08:07:39;19.00;94.90
57058;DHT22;55017;52.848;6.748;2023-06-04T08:10:05;19.20;93.50
57058;DHT22;55017;52.848;6.748;2023-06-04T08:12:31;19.30;92.00
57058;DHT22;55017;52.848;6.748;2023-06-04T08:14:57;19.40;91.10
57058;DHT22;55017;52.848;6.748;2023-06-04T08:17:23;19.50;90.60
57058;DHT22;55017;52.848;6.748;2023-06-04T08:19:49;19.50;89.70
57058;DHT22;55017;52.848;6.748;2023-06-04T08:22:15;19.60;90.30
57058;DHT22;55017;52.848;6.748;2023-06-04T08:24:40;19.80;89.60
57058;DHT22;55017;52.848;6.748;2023-06-04T08:27:06;19.90;89.90
57058;DHT22;55017;52.848;6.748;2023-06-04T08:29:34;20.10;88.90
57058;DHT22;55017;52.848;6.748;2023-06-04T08:32:01;20.10;89.50
57058;DHT22;55017;52.848;6.748;2023-06-04T08:34:28;20.20;87.90
57058;DHT22;55017;52.848;6.748;2023-06-04T08:36:53;20.20;87.50
57058;DHT22;55017;52.848;6.748;2023-06-04T08:39:19;20.60;85.20
57058;DHT22;55017;52.848;6.748;2023-06-04T08:41:48;20.40;83.70
57058;DHT22;55017;52.848;6.748;2023-06-04T08:44:16;20.50;82.50
57058;DHT22;55017;52.848;6.748;2023-06-04T08:46:43;20.60;79.70
57058;DHT22;55017;52.848;6.748;2023-06-04T08:49:12;20.60;78.10
57058;DHT22;55017;52.848;6.748;2023-06-04T08:51:38;20.80;79.80
57058;DHT22;55017;52.848;6.748;2023-06-04T08:54:05;21.00;79.80
57058;DHT22;55017;52.848;6.748;2023-06-04T08:56:31;21.00;76.20
57058;DHT22;55017;52.848;6.748;2023-06-04T08:59:03;21.10;77.10
57058;DHT22;55017;52.848;6.748;2023-06-04T09:01:32;21.20;73.70
57058;DHT22;55017;52.848;6.748;2023-06-04T09:04:01;21.20;74.00
57058;DHT22;55017;52.848;6.748;2023-06-04T09:06:26;21.00;72.20
57058;DHT22;55017;52.848;6.748;2023-06-04T09:08:54;21.10;71.70
57058;DHT22;55017;52.848;6.748;2023-06-04T09:11:23;21.30;73.20
57058;DHT22;55017;52.848;6.748;2023-06-04T09:13:53;21.40;69.20
57058;DHT22;55017;52.848;6.748;2023-06-04T09:16:18;21.60;70.20
57058;DHT22;55017;52.848;6.748;2023-06-04T09:18:44;21.80;68.80
57058;DHT22;55017;52.848;6.748;2023-06-04T09:21:10;21.90;69.00
57058;DHT22;55017;52.848;6.748;2023-06-04T09:23:46;22.00;69.30
57058;DHT22;55017;52.848;6.748;2023-06-04T09:26:12;22.10;63.50
57058;DHT22;55017;52.848;6.748;2023-06-04T09:28:43;22.30;64.70
57058;DHT22;55017;52.848;6.748;2023-06-04T09:31:09;22.30;65.80
57058;DHT22;55017;52.848;6.748;2023-06-04T09:33:49;22.40;68.10
57058;DHT22;55017;52.848;6.748;2023-06-04T09:36:14;22.40;65.20
57058;DHT22;55017;52.848;6.748;2023-06-04T09:38:41;22.50;65.00
57058;DHT22;55017;52.848;6.748;2023-06-04T09:41:12;22.60;59.80
57058;DHT22;55017;52.848;6.748;2023-06-04T09:43:38;22.60;64.50
57058;DHT22;55017;52.848;6.748;2023-06-04T09:46:14;22.70;58.30
57058;DHT22;55017;52.848;6.748;2023-06-04T09:48:41;22.90;63.40
57058;DHT22;55017;52.848;6.748;2023-06-04T09:51:14;22.90;63.00
57058;DHT22;55017;52.848;6.748;2023-06-04T09:53:56;22.90;61.00
57058;DHT22;55017;52.848;6.748;2023-06-04T09:56:22;23.20;61.80
57058;DHT22;55017;52.848;6.748;2023-06-04T09:58:49;23.00;62.50
57058;DHT22;55017;52.848;6.748;2023-06-04T10:01:15;23.00;56.90
57058;DHT22;55017;52.848;6.748;2023-06-04T10:03:47;23.10;62.30
57058;DHT22;55017;52.848;6.748;2023-06-04T10:06:15;23.00;61.80
57058;DHT22;55017;52.848;6.748;2023-06-04T10:08:45;23.10;63.30
57058;DHT22;55017;52.848;6.748;2023-06-04T10:11:12;23.10;62.00
57058;DHT22;55017;52.848;6.748;2023-06-04T10:13:47;23.40;63.00
57058;DHT22;55017;52.848;6.748;2023-06-04T10:16:14;23.50;61.90
57058;DHT22;55017;52.848;6.748;2023-06-04T10:18:40;23.60;63.20
57058;DHT22;55017;52.848;6.748;2023-06-04T10:21:06;23.70;63.40
57058;DHT22;55017;52.848;6.748;2023-06-04T10:23:33;23.60;61.50
57058;DHT22;55017;52.848;6.748;2023-06-04T10:25:59;23.70;62.20
57058;DHT22;55017;52.848;6.748;2023-06-04T10:28:26;23.60;61.70
57058;DHT22;55017;52.848;6.748;2023-06-04T10:30:51;23.80;61.00
57058;DHT22;55017;52.848;6.748;2023-06-04T10:33:21;23.80;61.00
57058;DHT22;55017;52.848;6.748;2023-06-04T10:35:53;24.00;59.60
57058;DHT22;55017;52.848;6.748;2023-06-04T10:38:19;23.90;57.50
57058;DHT22;55017;52.848;6.748;2023-06-04T10:40:46;24.20;59.90
57058;DHT22;55017;52.848;6.748;2023-06-04T10:43:13;24.20;59.00
57058;DHT22;55017;52.848;6.748;2023-06-04T10:45:40;24.20;58.00
57058;DHT22;55017;52.848;6.748;2023-06-04T10:48:07;24.20;53.40
57058;DHT22;55017;52.848;6.748;2023-06-04T10:50:34;24.30;56.20
57058;DHT22;55017;52.848;6.748;2023-06-04T10:53:00;24.30;56.60
57058;DHT22;55017;52.848;6.748;2023-06-04T10:55:30;24.20;56.40
57058;DHT22;55017;52.848;6.748;2023-06-04T10:57:58;24.20;55.50
57058;DHT22;55017;52.848;6.748;2023-06-04T11:00:40;24.30;55.90
57058;DHT22;55017;52.848;6.748;2023-06-04T11:03:09;24.40;52.40
57058;DHT22;55017;52.848;6.748;2023-06-04T11:05:43;24.50;55.60
57058;DHT22;55017;52.848;6.748;2023-06-04T11:08:10;24.50;56.40
57058;DHT22;55017;52.848;6.748;2023-06-04T11:10:45;24.70;55.70
57058;DHT22;55017;52.848;6.748;2023-06-04T11:13:11;24.90;55.90
57058;DHT22;55017;52.848;6.748;2023-06-04T11:15:45;24.90;52.10
57058;DHT22;55017;52.848;6.748;2023-06-04T11:18:15;24.80;50.00
57058;DHT22;55017;52.848;6.748;2023-06-04T11:20:40;24.80;53.70
57058;DHT22;55017;52.848;6.748;2023-06-04T11:23:07;24.80;54.10
57058;DHT22;55017;52.848;6.748;2023-06-04T11:25:33;24.70;52.50
57058;DHT22;55017;52.848;6.748;2023-06-04T11:28:00;24.70;52.00
57058;DHT22;55017;52.848;6.748;2023-06-04T11:30:27;24.70;52.40
57058;DHT22;55017;52.848;6.748;2023-06-04T11:33:02;24.70;55.10
57058;DHT22;55017;52.848;6.748;2023-06-04T11:35:29;24.90;52.60
57058;DHT22;55017;52.848;6.748;2023-06-04T11:37:56;25.00;53.10
57058;DHT22;55017;52.848;6.748;2023-06-04T11:40:23;25.10;54.60
57058;DHT22;55017;52.848;6.748;2023-06-04T11:42:49;25.10;51.50
57058;DHT22;55017;52.848;6.748;2023-06-04T11:45:16;25.20;52.80
57058;DHT22;55017;52.848;6.748;2023-06-04T11:47:51;25.20;52.30
57058;DHT22;55017;52.848;6.748;2023-06-04T11:50:16;25.40;52.40
57058;DHT22;55017;52.848;6.748;2023-06-04T11:52:42;25.50;51.10
57058;DHT22;55017;52.848;6.748;2023-06-04T11:55:09;25.30;50.40
57058;DHT22;55017;52.848;6.748;2023-06-04T11:57:36;25.60;53.30
57058;DHT22;55017;52.848;6.748;2023-06-04T12:00:02;25.60;52.70
57058;DHT22;55017;52.848;6.748;2023-06-04T12:02:28;25.40;52.20
57058;DHT22;55017;52.848;6.748;2023-06-04T12:04:53;25.40;50.40
57058;DHT22;55017;52.848;6.748;2023-06-04T12:07:20;25.20;50.60
57058;DHT22;55017;52.848;6.748;2023-06-04T12:09:50;25.20;50.70
57058;DHT22;55017;52.848;6.748;2023-06-04T12:12:21;25.30;52.70
57058;DHT22;55017;52.848;6.748;2023-06-04T12:14:56;25.20;45.10
57058;DHT22;55017;52.848;6.748;2023-06-04T12:17:22;25.30;48.90
57058;DHT22;55017;52.848;6.748;2023-06-04T12:19:48;25.30;50.90
57058;DHT22;55017;52.848;6.748;2023-06-04T12:22:14;25.50;48.40
57058;DHT22;55017;52.848;6.748;2023-06-04T12:24:51;25.70;49.20
57058;DHT22;55017;52.848;6.748;2023-06-04T12:27:22;25.70;49.60
57058;DHT22;55017;52.848;6.748;2023-06-04T12:30:01;25.70;48.90
57058;DHT22;55017;52.848;6.748;2023-06-04T12:32:27;25.90;49.50
57058;DHT22;55017;52.848;6.748;2023-06-04T12:34:54;26.00;47.20
57058;DHT22;55017;52.848;6.748;2023-06-04T12:37:21;26.20;48.10
57058;DHT22;55017;52.848;6.748;2023-06-04T12:39:47;26.00;48.30
57058;DHT22;55017;52.848;6.748;2023-06-04T12:42:12;26.00;48.40
57058;DHT22;55017;52.848;6.748;2023-06-04T12:44:38;26.10;47.70
57058;DHT22;55017;52.848;6.748;2023-06-04T12:47:04;26.30;48.60
57058;DHT22;55017;52.848;6.748;2023-06-04T12:49:30;26.10;48.70
57058;DHT22;55017;52.848;6.748;2023-06-04T12:51:55;26.00;45.70
57058;DHT22;55017;52.848;6.748;2023-06-04T12:54:21;26.00;47.40
57058;DHT22;55017;52.848;6.748;2023-06-04T12:56:47;26.00;48.60
57058;DHT22;55017;52.848;6.748;2023-06-04T12:59:12;25.90;46.00
57058;DHT22;55017;52.848;6.748;2023-06-04T13:01:38;25.90;45.40
57058;DHT22;55017;52.848;6.748;2023-06-04T13:04:04;26.00;47.40
57058;DHT22;55017;52.848;6.748;2023-06-04T13:06:30;26.00;46.80
57058;DHT22;55017;52.848;6.748;2023-06-04T13:08:56;26.10;46.60
57058;DHT22;55017;52.848;6.748;2023-06-04T13:11:22;26.00;46.90
57058;DHT22;55017;52.848;6.748;2023-06-04T13:13:47;26.00;47.30
57058;DHT22;55017;52.848;6.748;2023-06-04T13:16:13;26.10;46.30
57058;DHT22;55017;52.848;6.748;2023-06-04T13:18:38;26.20;48.20
57058;DHT22;55017;52.848;6.748;2023-06-04T13:21:04;26.10;46.50
57058;DHT22;55017;52.848;6.748;2023-06-04T13:23:30;26.00;43.90
57058;DHT22;55017;52.848;6.748;2023-06-04T13:25:55;26.10;46.90
57058;DHT22;55017;52.848;6.748;2023-06-04T13:28:21;26.10;46.80
57058;DHT22;55017;52.848;6.748;2023-06-04T13:30:46;26.20;47.60
57058;DHT22;55017;52.848;6.748;2023-06-04T13:33:12;26.30;48.70
57058;DHT22;55017;52.848;6.748;2023-06-04T13:35:38;26.50;48.00
57058;DHT22;55017;52.848;6.748;2023-06-04T13:38:05;26.40;48.40
57058;DHT22;55017;52.848;6.748;2023-06-04T13:40:33;26.40;48.30
57058;DHT22;55017;52.848;6.748;2023-06-04T13:42:59;26.50;47.60
57058;DHT22;55017;52.848;6.748;2023-06-04T13:45:25;26.50;48.90
57058;DHT22;55017;52.848;6.748;2023-06-04T13:47:50;26.70;48.70
57058;DHT22;55017;52.848;6.748;2023-06-04T13:50:16;26.90;48.70
57058;DHT22;55017;52.848;6.748;2023-06-04T13:52:42;26.70;48.30
57058;DHT22;55017;52.848;6.748;2023-06-04T13:55:08;26.90;48.30
57058;DHT22;55017;52.848;6.748;2023-06-04T13:57:33;27.10;46.10
57058;DHT22;55017;52.848;6.748;2023-06-04T13:59:59;27.70;46.40
57058;DHT22;55017;52.848;6.748;2023-06-04T14:02:25;28.70;45.10
57058;DHT22;55017;52.848;6.748;2023-06-04T14:04:53;30.20;46.10
57058;DHT22;55017;52.848;6.748;2023-06-04T14:07:18;31.20;45.40
57058;DHT22;55017;52.848;6.748;2023-06-04T14:09:44;32.10;43.70
57058;DHT22;55017;52.848;6.748;2023-06-04T14:12:10;32.80;40.60
57058;DHT22;55017;52.848;6.748;2023-06-04T14:14:36;33.30;42.20
57058;DHT22;55017;52.848;6.748;2023-06-04T14:17:02;33.80;40.90
57058;DHT22;55017;52.848;6.748;2023-06-04T14:19:28;34.20;40.80
57058;DHT22;55017;52.848;6.748;2023-06-04T14:21:54;34.50;40.30
57058;DHT22;55017;52.848;6.748;2023-06-04T14:24:19;34.80;40.30
57058;DHT22;55017;52.848;6.748;2023-06-04T14:26:45;34.50;39.50
57058;DHT22;55017;52.848;6.748;2023-06-04T14:29:11;33.90;38.90
57058;DHT22;55017;52.848;6.748;2023-06-04T14:31:36;32.70;39.90
57058;DHT22;55017;52.848;6.748;2023-06-04T14:34:02;31.70;40.40
57058;DHT22;55017;52.848;6.748;2023-06-04T14:36:28;30.50;41.00
57058;DHT22;55017;52.848;6.748;2023-06-04T14:38:54;30.00;42.00
57058;DHT22;55017;52.848;6.748;2023-06-04T14:41:19;29.50;42.90
57058;DHT22;55017;52.848;6.748;2023-06-04T14:43:45;29.20;44.20
57058;DHT22;55017;52.848;6.748;2023-06-04T14:46:10;28.70;43.70
57058;DHT22;55017;52.848;6.748;2023-06-04T14:48:36;28.20;45.10
57058;DHT22;55017;52.848;6.748;2023-06-04T14:51:01;27.90;45.10
57058;DHT22;55017;52.848;6.748;2023-06-04T14:53:27;27.80;45.70
57058;DHT22;55017;52.848;6.748;2023-06-04T14:55:52;27.60;46.70
57058;DHT22;55017;52.848;6.748;2023-06-04T14:58:18;27.30;46.70
57058;DHT22;55017;52.848;6.748;2023-06-04T15:00:44;27.00;48.20
57058;DHT22;55017;52.848;6.748;2023-06-04T15:03:10;26.80;49.80
57058;DHT22;55017;52.848;6.748;2023-06-04T15:05:36;26.50;49.70
57058;DHT22;55017;52.848;6.748;2023-06-04T15:08:02;26.40;50.10
57058;DHT22;55017;52.848;6.748;2023-06-04T15:10:28;26.40;51.20
57058;DHT22;55017;52.848;6.748;2023-06-04T15:12:54;26.00;52.70
57058;DHT22;55017;52.848;6.748;2023-06-04T15:15:20;25.60;52.20
57058;DHT22;55017;52.848;6.748;2023-06-04T15:17:46;25.30;52.60
57058;DHT22;55017;52.848;6.748;2023-06-04T15:20:12;25.00;52.70
57058;DHT22;55017;52.848;6.748;2023-06-04T15:22:37;25.00;53.70
57058;DHT22;55017;52.848;6.748;2023-06-04T15:25:03;24.80;53.70
57058;DHT22;55017;52.848;6.748;2023-06-04T15:27:29;24.60;54.20
57058;DHT22;55017;52.848;6.748;2023-06-04T15:29:55;24.30;54.30